createdAt,value
2024-04-25T00:01:43.539Z,8.90
2024-04-25T00:04:10.842Z,8.88
2024-04-25T00:06:38.191Z,8.88
2024-04-25T00:09:05.516Z,8.89
2024-04-25T00:11:32.856Z,8.88
2024-04-25T00:14:00.341Z,8.89
2024-04-25T00:16:27.800Z,8.90
2024-04-25T00:18:55.106Z,8.91
2024-04-25T00:21:22.450Z,8.92
2024-04-25T00:23:49.802Z,8.90
2024-04-25T00:26:17.208Z,8.88
2024-04-25T00:28:44.481Z,8.89
2024-04-25T00:31:11.794Z,8.91
2024-04-25T00:33:39.175Z,8.91
2024-04-25T00:36:09.724Z,8.91
2024-04-25T00:38:36.948Z,8.92
2024-04-25T00:41:04.872Z,8.92
2024-04-25T00:43:32.758Z,8.91
2024-04-25T00:46:00.165Z,8.92
2024-04-25T00:48:31.539Z,8.92
2024-04-25T00:51:02.614Z,8.92
2024-04-25T00:53:30.659Z,8.92
2024-04-25T00:55:58.247Z,8.92
2024-04-25T00:58:25.635Z,8.93
2024-04-25T01:00:53.059Z,8.94
2024-04-25T01:03:20.505Z,8.95
2024-04-25T01:05:47.973Z,8.97
2024-04-25T01:08:16.111Z,8.98
2024-04-25T01:10:44.105Z,9.02
2024-04-25T01:13:11.661Z,9.03
2024-04-25T01:15:38.917Z,9.06
2024-04-25T01:18:06.272Z,9.08
2024-04-25T01:20:36.158Z,9.10
2024-04-25T01:23:04.893Z,9.12
2024-04-25T01:25:32.198Z,9.10
2024-04-25T01:27:59.480Z,9.09
2024-04-25T01:30:28.298Z,9.03
2024-04-25T01:32:55.935Z,8.96
2024-04-25T01:35:24.926Z,8.91
2024-04-25T01:37:52.190Z,8.84
2024-04-25T01:40:19.559Z,8.78
2024-04-25T01:42:46.834Z,8.76
2024-04-25T01:45:14.166Z,8.73
2024-04-25T01:47:41.640Z,8.66
2024-04-25T01:50:09.059Z,8.60
2024-04-25T01:52:36.413Z,8.56
2024-04-25T01:55:03.911Z,8.54
2024-04-25T01:57:31.325Z,8.50
2024-04-25T01:59:58.666Z,8.44
2024-04-25T02:02:26.099Z,8.40
2024-04-25T02:04:53.532Z,8.34
2024-04-25T02:07:21.563Z,8.30
2024-04-25T02:09:48.775Z,8.26
2024-04-25T02:12:16.130Z,8.24
2024-04-25T02:14:43.428Z,8.19
2024-04-25T02:17:11.233Z,8.17
2024-04-25T02:19:38.556Z,8.15
2024-04-25T02:22:24.531Z,8.13
2024-04-25T02:25:10.464Z,8.10
2024-04-25T02:27:37.779Z,8.08
2024-04-25T02:30:05.931Z,8.06
2024-04-25T02:32:33.315Z,8.05
2024-04-25T02:35:00.698Z,8.04
2024-04-25T02:37:28.404Z,8.03
2024-04-25T02:39:55.783Z,8.02
2024-04-25T02:42:23.051Z,8.02
2024-04-25T02:44:50.373Z,8.03
2024-04-25T02:47:17.855Z,8.03
2024-04-25T02:49:45.279Z,8.03
2024-04-25T02:52:12.545Z,8.03
2024-04-25T02:54:39.820Z,8.02
2024-04-25T02:57:07.132Z,8.01
2024-04-25T02:59:34.609Z,8.01
2024-04-25T03:02:04.446Z,8.00
2024-04-25T03:04:31.925Z,8.00
2024-04-25T03:06:59.217Z,7.99
2024-04-25T03:09:26.467Z,7.98
2024-04-25T03:11:53.843Z,7.97
2024-04-25T03:14:21.883Z,7.96
2024-04-25T03:16:49.376Z,7.94
2024-04-25T03:19:16.757Z,7.91
2024-04-25T03:21:43.990Z,7.87
2024-04-25T03:24:11.423Z,7.86
2024-04-25T03:26:38.795Z,7.86
2024-04-25T03:29:06.997Z,7.84
2024-04-25T03:31:34.613Z,7.84
2024-04-25T03:34:01.984Z,7.84
2024-04-25T03:36:29.263Z,7.86
2024-04-25T03:38:56.994Z,7.86
2024-04-25T03:41:25.348Z,7.87
2024-04-25T03:43:52.652Z,7.87
2024-04-25T03:46:19.906Z,7.87
2024-04-25T03:48:47.778Z,7.88
2024-04-25T03:51:15.253Z,7.88
2024-04-25T03:53:42.661Z,7.90
2024-04-25T03:56:10.075Z,7.91
2024-04-25T03:58:37.446Z,7.94
2024-04-25T04:01:04.921Z,7.94
2024-04-25T04:03:32.247Z,7.96
2024-04-25T04:05:59.537Z,7.97
2024-04-25T04:08:27.383Z,7.98
2024-04-25T04:10:54.803Z,8.00
2024-04-25T04:13:22.111Z,8.01
2024-04-25T04:15:49.829Z,8.03
2024-04-25T04:18:17.219Z,8.06
2024-04-25T04:20:46.096Z,8.10
2024-04-25T04:23:13.498Z,8.14
2024-04-25T04:25:41.088Z,8.18
2024-04-25T04:28:09.688Z,8.22
2024-04-25T04:30:38.336Z,8.28
2024-04-25T04:33:05.958Z,8.33
2024-04-25T04:35:33.407Z,8.37
2024-04-25T04:38:01.179Z,8.43
2024-04-25T04:40:29.369Z,8.48
2024-04-25T04:42:56.638Z,8.53
2024-04-25T04:45:23.990Z,8.58
2024-04-25T04:47:51.342Z,8.62
2024-04-25T04:50:20.506Z,8.66
2024-04-25T04:52:48.095Z,8.72
2024-04-25T04:55:15.477Z,8.76
2024-04-25T04:57:42.857Z,8.75
2024-04-25T05:00:11.678Z,8.71
2024-04-25T05:02:39.120Z,8.69
2024-04-25T05:05:07.314Z,8.67
2024-04-25T05:07:38.292Z,8.65
2024-04-25T05:10:06.286Z,8.63
2024-04-25T05:12:33.672Z,8.62
2024-04-25T05:15:01.070Z,8.57
2024-04-25T05:17:28.531Z,8.49
2024-04-25T05:19:55.951Z,8.37
2024-04-25T05:22:23.393Z,8.23
2024-04-25T05:24:50.730Z,8.10
2024-04-25T05:27:18.061Z,7.99
2024-04-25T05:29:45.495Z,7.94
2024-04-25T05:32:12.897Z,7.93
2024-04-25T05:34:40.821Z,7.95
2024-04-25T05:37:08.152Z,7.95
2024-04-25T05:39:35.558Z,7.88
2024-04-25T05:42:03.002Z,7.85
2024-04-25T05:44:30.491Z,7.80
2024-04-25T05:46:58.923Z,7.73
2024-04-25T05:49:26.351Z,7.70
2024-04-25T05:51:53.725Z,7.69
2024-04-25T05:54:21.031Z,7.69
2024-04-25T05:56:48.521Z,7.68
2024-04-25T05:59:17.119Z,7.67
2024-04-25T06:01:44.556Z,7.68
2024-04-25T06:04:12.001Z,7.69
2024-04-25T06:06:39.335Z,7.73
2024-04-25T06:09:06.677Z,7.77
2024-04-25T06:11:34.978Z,7.82
2024-04-25T06:14:02.789Z,7.90
2024-04-25T06:16:30.129Z,8.00
2024-04-25T06:18:57.626Z,8.07
2024-04-25T06:21:24.929Z,8.07
2024-04-25T06:23:52.195Z,8.07
2024-04-25T06:26:19.546Z,8.09
2024-04-25T06:28:47.020Z,8.10
2024-04-25T06:31:14.588Z,8.10
2024-04-25T06:33:41.930Z,8.12
2024-04-25T06:36:09.724Z,8.15
2024-04-25T06:38:37.438Z,8.18
2024-04-25T06:41:04.973Z,8.15
2024-04-25T06:43:35.113Z,8.09
2024-04-25T06:46:03.233Z,7.99
2024-04-25T06:48:30.671Z,7.92
2024-04-25T06:50:58.159Z,7.91
2024-04-25T06:53:25.596Z,7.92
2024-04-25T06:55:53.028Z,7.90
2024-04-25T06:58:20.989Z,7.82
2024-04-25T07:00:48.506Z,7.71
2024-04-25T07:05:29.622Z,7.48
2024-04-25T07:07:57.760Z,7.51
2024-04-25T07:10:25.001Z,7.53
2024-04-25T07:12:52.306Z,7.58
2024-04-25T07:15:22.598Z,7.64
2024-04-25T07:17:51.118Z,7.74
2024-04-25T07:20:18.749Z,7.87
2024-04-25T07:22:46.189Z,8.00
2024-04-25T07:25:15.078Z,8.13
2024-04-25T07:27:42.383Z,8.18
2024-04-25T07:30:13.282Z,8.18
2024-04-25T07:32:41.025Z,8.23
2024-04-25T07:35:08.634Z,8.27
2024-04-25T07:37:36.603Z,8.24
2024-04-25T07:40:05.469Z,8.22
2024-04-25T07:42:32.828Z,8.20
2024-04-25T07:45:02.574Z,8.21
2024-04-25T07:47:30.385Z,8.20
2024-04-25T07:49:58.873Z,8.14
2024-04-25T07:52:29.535Z,8.08
2024-04-25T07:54:57.254Z,8.02
2024-04-25T07:57:26.659Z,7.98
2024-04-25T07:59:55.700Z,7.99
2024-04-25T08:02:23.617Z,8.07
2024-04-25T08:04:51.124Z,8.18
2024-04-25T08:07:18.531Z,8.22
2024-04-25T08:09:45.853Z,8.21
2024-04-25T08:12:13.202Z,8.20
2024-04-25T08:14:45.490Z,8.20
2024-04-25T08:17:13.165Z,8.24
2024-04-25T08:19:40.455Z,8.26
2024-04-25T08:22:07.835Z,8.22
2024-04-25T08:24:35.334Z,8.20
2024-04-25T08:27:02.695Z,8.22
2024-04-25T08:29:30.167Z,8.25
2024-04-25T08:31:57.556Z,8.30
2024-04-25T08:34:25.139Z,8.33
2024-04-25T08:36:52.564Z,8.37
2024-04-25T08:39:19.879Z,8.44
2024-04-25T08:41:49.322Z,8.53
2024-04-25T08:44:17.380Z,8.63
2024-04-25T08:46:45.388Z,8.70
2024-04-25T08:49:12.682Z,8.75
2024-04-25T08:51:40.398Z,8.81
2024-04-25T08:54:07.919Z,8.91
2024-04-25T08:56:35.343Z,8.87
2024-04-25T08:59:02.797Z,8.77
2024-04-25T09:01:30.675Z,8.65
2024-04-25T09:03:59.043Z,8.57
2024-04-25T09:06:29.167Z,8.51
2024-04-25T09:08:57.020Z,8.48
2024-04-25T09:11:24.939Z,8.49
2024-04-25T09:13:56.118Z,8.55
2024-04-25T09:16:26.728Z,8.60
2024-04-25T09:18:54.314Z,8.60
2024-04-25T09:21:21.764Z,8.61
2024-04-25T09:23:49.259Z,8.65
2024-04-25T09:26:16.805Z,8.75
2024-04-25T09:28:45.150Z,8.89
2024-04-25T09:31:12.935Z,9.02
2024-04-25T09:33:40.491Z,9.18
2024-04-25T09:36:11.015Z,9.28
2024-04-25T09:38:38.394Z,9.35
2024-04-25T09:41:05.937Z,9.41
2024-04-25T09:43:33.388Z,9.47
2024-04-25T09:46:02.869Z,9.56
2024-04-25T09:48:32.791Z,9.62
2024-04-25T09:51:07.127Z,9.63
2024-04-25T09:54:01.306Z,9.66
2024-04-25T09:56:30.588Z,9.71
2024-04-25T09:59:07.690Z,9.78
2024-04-25T10:01:35.271Z,9.91
2024-04-25T10:04:02.752Z,9.99
2024-04-25T10:06:30.695Z,10.00
2024-04-25T10:08:58.762Z,10.00
2024-04-25T10:11:29.420Z,10.02
2024-04-25T10:13:57.062Z,10.08
2024-04-25T10:16:24.398Z,10.05
2024-04-25T10:18:52.718Z,9.99
2024-04-25T10:21:21.046Z,9.96
2024-04-25T10:23:50.819Z,9.99
2024-04-25T10:26:18.978Z,9.98
2024-04-25T10:29:04.475Z,9.96
2024-04-25T10:31:36.907Z,9.95
2024-04-25T10:34:08.180Z,9.95
2024-04-25T10:36:36.838Z,9.92
2024-04-25T10:39:08.494Z,9.94
2024-04-25T10:41:38.717Z,10.04
2024-04-25T10:44:06.938Z,10.16
2024-04-25T10:46:34.855Z,10.23
2024-04-25T10:49:04.178Z,10.30
2024-04-25T10:51:33.242Z,10.36
2024-04-25T10:54:00.828Z,10.47
2024-04-25T10:56:28.264Z,10.57
2024-04-25T10:58:56.840Z,10.64
2024-04-25T11:01:25.118Z,10.70
2024-04-25T11:03:54.614Z,10.69
2024-04-25T11:06:22.698Z,10.70
2024-04-25T11:08:50.319Z,10.67
2024-04-25T11:11:17.934Z,10.61
2024-04-25T11:13:45.782Z,10.64
2024-04-25T11:16:13.150Z,10.70
2024-04-25T11:18:40.900Z,10.75
2024-04-25T11:21:08.818Z,10.84
2024-04-25T11:23:36.611Z,10.97
2024-04-25T11:26:05.383Z,11.07
2024-04-25T11:28:33.216Z,11.07
2024-04-25T11:31:03.006Z,11.12
2024-04-25T11:33:32.152Z,11.16
2024-04-25T11:35:59.697Z,11.20
2024-04-25T11:38:30.009Z,11.28
2024-04-25T11:40:57.552Z,11.35
2024-04-25T11:43:26.482Z,11.45
2024-04-25T11:45:53.974Z,11.55
2024-04-25T11:48:23.154Z,11.63
2024-04-25T11:50:50.988Z,11.63
2024-04-25T11:53:18.524Z,11.53
2024-04-25T11:55:47.235Z,11.48
2024-04-25T11:58:14.846Z,11.51
2024-04-25T12:00:49.105Z,11.56
2024-04-25T12:03:16.863Z,11.54
2024-04-25T12:05:44.275Z,11.44
2024-04-25T12:08:11.897Z,11.36
2024-04-25T12:10:39.720Z,11.27
2024-04-25T12:13:09.335Z,11.08
2024-04-25T12:15:37.101Z,10.94
2024-04-25T12:18:05.500Z,10.94
2024-04-25T12:20:33.150Z,11.00
2024-04-25T12:23:00.584Z,11.11
2024-04-25T12:25:27.942Z,11.21
2024-04-25T12:27:55.299Z,11.32
2024-04-25T12:30:22.672Z,11.43
2024-04-25T12:32:50.072Z,11.52
2024-04-25T12:35:17.804Z,11.62
2024-04-25T12:37:45.274Z,11.74
2024-04-25T12:40:12.798Z,11.85
2024-04-25T12:42:40.143Z,11.90
2024-04-25T12:45:07.712Z,11.92
2024-04-25T12:47:36.286Z,11.86
2024-04-25T12:50:04.471Z,11.71
2024-04-25T12:52:32.730Z,11.61
2024-04-25T12:55:00.503Z,11.57
2024-04-25T12:57:28.056Z,11.54
2024-04-25T12:59:55.634Z,11.48
2024-04-25T13:02:23.230Z,11.38
2024-04-25T13:04:50.771Z,11.31
2024-04-25T13:07:18.399Z,11.25
2024-04-25T13:09:45.872Z,11.21
2024-04-25T13:12:13.315Z,11.20
2024-04-25T13:14:40.698Z,11.22
2024-04-25T13:17:08.230Z,11.24
2024-04-25T13:19:35.580Z,11.23
2024-04-25T13:22:06.370Z,11.22
2024-04-25T13:24:34.020Z,11.20
2024-04-25T13:27:03.158Z,11.17
2024-04-25T13:29:31.234Z,11.08
2024-04-25T13:31:58.786Z,10.99
2024-04-25T13:34:26.377Z,10.93
2024-04-25T13:36:56.055Z,10.85
2024-04-25T13:39:23.515Z,10.82
2024-04-25T13:41:51.080Z,10.83
2024-04-25T13:44:18.696Z,10.82
2024-04-25T13:46:46.136Z,10.85
2024-04-25T13:49:13.887Z,10.85
2024-04-25T13:51:41.578Z,10.81
2024-04-25T13:54:09.005Z,10.80
2024-04-25T13:56:36.515Z,10.78
2024-04-25T13:59:03.937Z,10.75
2024-04-25T14:01:31.317Z,10.72
2024-04-25T14:03:58.771Z,10.70
2024-04-25T14:06:26.331Z,10.67
2024-04-25T14:08:53.693Z,10.69
2024-04-25T14:11:21.162Z,10.73
2024-04-25T14:13:49.528Z,10.78
2024-04-25T14:16:17.135Z,10.79
2024-04-25T14:18:44.679Z,10.79
2024-04-25T14:21:12.440Z,10.82
2024-04-25T14:23:41.357Z,10.89
2024-04-25T14:26:27.509Z,10.94
2024-04-25T14:28:57.235Z,10.97
2024-04-25T14:31:24.661Z,10.96
2024-04-25T14:33:52.194Z,10.93
2024-04-25T14:36:19.681Z,10.93
2024-04-25T14:38:47.047Z,10.99
2024-04-25T14:41:14.766Z,11.06
2024-04-25T14:43:43.019Z,11.16
2024-04-25T14:46:10.750Z,11.27
2024-04-25T14:48:38.269Z,11.30
2024-04-25T14:51:05.860Z,11.31
2024-04-25T14:53:33.407Z,11.39
2024-04-25T14:56:00.974Z,11.49
2024-04-25T14:58:29.375Z,11.52
2024-04-25T15:00:57.100Z,11.59
2024-04-25T15:03:24.574Z,11.81
2024-04-25T15:05:52.192Z,12.07
2024-04-25T15:08:19.658Z,12.39
2024-04-25T15:10:47.713Z,12.74
2024-04-25T15:13:21.596Z,13.07
2024-04-25T15:15:52.376Z,13.34
2024-04-25T15:18:19.973Z,13.48
2024-04-25T15:20:47.362Z,13.56
2024-04-25T15:23:15.232Z,13.39
2024-04-25T15:25:42.754Z,13.05
2024-04-25T15:28:11.454Z,12.82
2024-04-25T15:30:41.980Z,12.48
2024-04-25T15:33:09.504Z,12.12
2024-04-25T15:35:37.126Z,11.86
2024-04-25T15:38:04.969Z,11.66
2024-04-25T15:40:32.456Z,11.53
2024-04-25T15:42:59.874Z,11.47
2024-04-25T15:45:28.362Z,11.51
2024-04-25T15:47:55.973Z,11.58
2024-04-25T15:50:23.553Z,11.72
2024-04-25T15:52:51.008Z,11.90
2024-04-25T15:55:18.456Z,11.99
2024-04-25T15:57:46.122Z,12.02
2024-04-25T16:00:14.184Z,12.00
2024-04-25T16:02:41.726Z,11.97
2024-04-25T16:05:09.519Z,11.99
2024-04-25T16:07:38.017Z,12.07
2024-04-25T16:10:06.188Z,12.09
2024-04-25T16:12:33.948Z,12.11
2024-04-25T16:15:01.626Z,12.12
2024-04-25T16:17:29.029Z,12.15
2024-04-25T16:19:56.650Z,12.15
2024-04-25T16:22:23.949Z,12.11
2024-04-25T16:24:51.267Z,12.23
2024-04-25T16:27:18.701Z,12.62
2024-04-25T16:29:46.632Z,13.29
2024-04-25T16:32:14.263Z,14.01
2024-04-25T16:34:41.884Z,14.55
2024-04-25T16:37:09.441Z,14.82
2024-04-25T16:39:36.851Z,14.89
2024-04-25T16:42:04.722Z,14.81
2024-04-25T16:44:32.239Z,14.74
2024-04-25T16:47:02.188Z,14.85
2024-04-25T16:49:29.548Z,15.08
2024-04-25T16:51:57.070Z,15.33
2024-04-25T16:54:28.408Z,15.48
2024-04-25T16:56:56.356Z,15.41
2024-04-25T16:59:23.860Z,15.18
2024-04-25T17:01:51.293Z,14.86
2024-04-25T17:04:18.634Z,14.46
2024-04-25T17:06:52.491Z,14.01
2024-04-25T17:09:20.939Z,13.53
2024-04-25T17:11:48.349Z,13.06
2024-04-25T17:14:16.199Z,12.64
2024-04-25T17:16:44.993Z,12.31
2024-04-25T17:19:12.547Z,12.09
2024-04-25T17:21:42.259Z,11.89
2024-04-25T17:24:09.651Z,11.66
2024-04-25T17:26:41.444Z,11.48
2024-04-25T17:29:09.667Z,11.32
2024-04-25T17:31:38.271Z,11.15
2024-04-25T17:34:06.394Z,11.01
2024-04-25T17:36:33.975Z,10.87
2024-04-25T17:39:01.339Z,10.73
2024-04-25T17:41:28.622Z,10.62
2024-04-25T17:43:56.128Z,10.53
2024-04-25T17:46:23.489Z,10.44
2024-04-25T17:48:51.783Z,10.37
2024-04-25T17:51:21.125Z,10.31
2024-04-25T17:53:49.601Z,10.24
2024-04-25T17:56:17.793Z,10.19
2024-04-25T17:58:46.101Z,10.12
2024-04-25T18:01:13.604Z,10.07
2024-04-25T18:03:41.085Z,10.01
2024-04-25T18:06:10.573Z,9.93
2024-04-25T18:08:38.280Z,9.89
2024-04-25T18:11:05.627Z,9.86
2024-04-25T18:13:33.315Z,9.83
2024-04-25T18:16:01.298Z,9.77
2024-04-25T18:18:29.291Z,9.72
2024-04-25T18:20:56.996Z,9.70
2024-04-25T18:23:24.456Z,9.70
2024-04-25T18:25:52.004Z,9.68
2024-04-25T18:28:20.946Z,9.67
2024-04-25T18:30:48.553Z,9.66
2024-04-25T18:33:16.119Z,9.65
2024-04-25T18:35:43.621Z,9.64
2024-04-25T18:38:11.144Z,9.64
2024-04-25T18:40:38.497Z,9.63
2024-04-25T18:43:07.341Z,9.62
2024-04-25T18:45:34.804Z,9.61
2024-04-25T18:48:02.377Z,9.60
2024-04-25T18:50:30.135Z,9.58
2024-04-25T18:52:57.567Z,9.56
2024-04-25T18:55:25.022Z,9.53
2024-04-25T18:57:52.372Z,9.53
2024-04-25T19:00:19.839Z,9.53
2024-04-25T19:02:47.491Z,9.51
2024-04-25T19:05:15.352Z,9.51
2024-04-25T19:07:43.225Z,9.51
2024-04-25T19:10:10.584Z,9.49
2024-04-25T19:12:42.010Z,9.48
2024-04-25T19:15:10.049Z,9.49
2024-04-25T19:17:37.478Z,9.48
2024-04-25T19:22:34.232Z,9.40
2024-04-25T19:25:01.703Z,9.43
2024-04-25T19:27:29.045Z,9.44
2024-04-25T19:29:58.160Z,9.45
2024-04-25T19:32:26.158Z,9.45
2024-04-25T19:34:55.693Z,9.44
2024-04-25T19:37:23.182Z,9.42
2024-04-25T19:39:50.847Z,9.39
2024-04-25T19:42:20.058Z,9.36
2024-04-25T19:44:47.623Z,9.35
2024-04-25T19:47:15.145Z,9.34
2024-04-25T19:49:42.679Z,9.32
2024-04-25T19:52:10.960Z,9.31
2024-04-25T19:54:38.455Z,9.29
2024-04-25T19:57:05.808Z,9.28
2024-04-25T19:59:33.617Z,9.24
2024-04-25T20:02:01.779Z,9.20
2024-04-25T20:04:29.420Z,9.17
2024-04-25T20:06:56.934Z,9.14
2024-04-25T20:09:24.389Z,9.10
2024-04-25T20:11:52.031Z,9.06
2024-04-25T20:14:20.261Z,9.03
2024-04-25T20:16:49.812Z,9.02
2024-04-25T20:19:36.141Z,9.00
2024-04-25T20:22:03.592Z,8.97
2024-04-25T20:24:30.996Z,8.94
2024-04-25T20:26:58.507Z,8.91
2024-04-25T20:29:29.642Z,8.89
2024-04-25T20:31:57.750Z,8.87
2024-04-25T20:34:25.233Z,8.85
2024-04-25T20:36:53.041Z,8.81
2024-04-25T20:39:21.405Z,8.78
2024-04-25T20:41:49.052Z,8.75
2024-04-25T20:44:17.806Z,8.73
2024-04-25T20:46:45.340Z,8.70
2024-04-25T20:49:12.872Z,8.69
2024-04-25T20:51:42.638Z,8.67
2024-04-25T20:54:11.978Z,8.66
2024-04-25T20:56:42.718Z,8.63
2024-04-25T20:59:10.184Z,8.59
2024-04-25T21:01:40.392Z,8.56
2024-04-25T21:04:07.819Z,8.53
2024-04-25T21:06:41.838Z,8.50
2024-04-25T21:09:10.966Z,8.44
2024-04-25T21:11:38.967Z,8.37
2024-04-25T21:14:06.456Z,8.30
2024-04-25T21:16:44.215Z,8.24
2024-04-25T21:19:11.734Z,8.22
2024-04-25T21:21:40.379Z,8.21
2024-04-25T21:24:07.859Z,8.21
2024-04-25T21:26:35.311Z,8.19
2024-04-25T21:29:02.761Z,8.18
2024-04-25T21:31:30.216Z,8.15
2024-04-25T21:33:57.640Z,8.13
2024-04-25T21:36:27.073Z,8.11
2024-04-25T21:38:54.615Z,8.09
2024-04-25T21:41:22.205Z,8.07
2024-04-25T21:43:49.869Z,8.05
2024-04-25T21:46:17.434Z,8.02
2024-04-25T21:48:46.906Z,8.01
2024-04-25T21:51:16.139Z,7.98
2024-04-25T21:53:43.483Z,7.96
2024-04-25T21:56:11.020Z,7.93
2024-04-25T21:58:38.451Z,7.92
2024-04-25T22:01:06.296Z,7.93
2024-04-25T22:03:34.895Z,7.94
2024-04-25T22:06:02.592Z,7.95
2024-04-25T22:08:30.097Z,7.96
2024-04-25T22:10:57.886Z,7.96
2024-04-25T22:13:25.243Z,7.94
2024-04-25T22:15:52.705Z,7.94
2024-04-25T22:18:20.131Z,7.94
2024-04-25T22:20:47.684Z,7.94
2024-04-25T22:23:15.280Z,7.92
2024-04-25T22:25:42.557Z,7.91
2024-04-25T22:28:10.089Z,7.90
2024-04-25T22:30:37.570Z,7.88
2024-04-25T22:33:05.343Z,7.86
2024-04-25T22:35:32.812Z,7.82
2024-04-25T22:38:00.225Z,7.77
2024-04-25T22:40:27.604Z,7.70
2024-04-25T22:42:54.933Z,7.60
2024-04-25T22:45:25.224Z,7.48
2024-04-25T22:47:59.318Z,7.36
2024-04-25T22:50:26.766Z,7.26
2024-04-25T22:52:54.183Z,7.19
2024-04-25T22:55:21.646Z,7.14
2024-04-25T22:57:49.021Z,7.07
2024-04-25T23:00:16.981Z,7.05
2024-04-25T23:02:44.874Z,7.05
2024-04-25T23:05:12.595Z,7.08
2024-04-25T23:07:39.960Z,7.10
2024-04-25T23:10:08.362Z,7.14
2024-04-25T23:12:35.796Z,7.16
2024-04-25T23:15:04.587Z,7.19
2024-04-25T23:17:32.053Z,7.21
2024-04-25T23:19:59.627Z,7.23
2024-04-25T23:22:27.153Z,7.25
2024-04-25T23:24:54.617Z,7.26
2024-04-25T23:27:22.096Z,7.27
2024-04-25T23:29:49.447Z,7.26
2024-04-25T23:32:17.060Z,7.26
2024-04-25T23:34:44.411Z,7.27
2024-04-25T23:37:12.178Z,7.27
2024-04-25T23:39:40.340Z,7.28
2024-04-25T23:42:09.529Z,7.28
2024-04-25T23:44:38.279Z,7.28
2024-04-25T23:47:07.361Z,7.29
2024-04-25T23:49:35.001Z,7.29
2024-04-25T23:52:02.386Z,7.28
2024-04-25T23:54:29.900Z,7.27
2024-04-25T23:56:57.303Z,7.25
2024-04-25T23:59:24.954Z,7.24
